sensor_id;sensor_type;location;lat;lon;timestamp;P1;durP1;ratioP1;P2;durP2;ratioP2
26536;SDS011;14204;51.262;5.488;2022-11-15T00:01:48;40.25;;;22.13;;
26536;SDS011;14204;51.262;5.488;2022-11-15T00:04:13;35.78;;;21.38;;
26536;SDS011;14204;51.262;5.488;2022-11-15T00:06:39;38.85;;;21.42;;
26536;SDS011;14204;51.262;5.488;2022-11-15T00:09:05;38.50;;;21.60;;
26536;SDS011;14204;51.262;5.488;2022-11-15T00:11:31;44.92;;;23.58;;
26536;SDS011;14204;51.262;5.488;2022-11-15T00:13:57;45.70;;;26.05;;
26536;SDS011;14204;51.262;5.488;2022-11-15T00:16:24;43.97;;;24.75;;
26536;SDS011;14204;51.262;5.488;2022-11-15T00:18:50;47.35;;;25.20;;
26536;SDS011;14204;51.262;5.488;2022-11-15T00:21:16;47.17;;;26.00;;
26536;SDS011;14204;51.262;5.488;2022-11-15T00:23:42;48.47;;;26.35;;
26536;SDS011;14204;51.262;5.488;2022-11-15T00:26:12;57.03;;;29.05;;
26536;SDS011;14204;51.262;5.488;2022-11-15T00:28:38;61.63;;;31.27;;
26536;SDS011;14204;51.262;5.488;2022-11-15T00:31:06;51.72;;;27.83;;
26536;SDS011;14204;51.262;5.488;2022-11-15T00:33:39;61.97;;;32.20;;
26536;SDS011;14204;51.262;5.488;2022-11-15T00:36:06;67.15;;;32.85;;
26536;SDS011;14204;51.262;5.488;2022-11-15T00:38:37;62.03;;;35.08;;
26536;SDS011;14204;51.262;5.488;2022-11-15T00:41:04;59.55;;;31.83;;
26536;SDS011;14204;51.262;5.488;2022-11-15T00:43:31;74.18;;;34.30;;
26536;SDS011;14204;51.262;5.488;2022-11-15T00:45:57;66.35;;;35.33;;
26536;SDS011;14204;51.262;5.488;2022-11-15T00:48:23;59.83;;;30.20;;
26536;SDS011;14204;51.262;5.488;2022-11-15T00:50:49;65.97;;;33.15;;
26536;SDS011;14204;51.262;5.488;2022-11-15T00:53:15;66.72;;;33.90;;
26536;SDS011;14204;51.262;5.488;2022-11-15T00:55:41;64.38;;;33.47;;
26536;SDS011;14204;51.262;5.488;2022-11-15T00:58:07;61.60;;;34.22;;
26536;SDS011;14204;51.262;5.488;2022-11-15T01:00:33;68.07;;;33.65;;
26536;SDS011;14204;51.262;5.488;2022-11-15T01:03:02;59.45;;;33.03;;
26536;SDS011;14204;51.262;5.488;2022-11-15T01:05:28;69.72;;;34.80;;
26536;SDS011;14204;51.262;5.488;2022-11-15T01:07:54;66.97;;;34.38;;
26536;SDS011;14204;51.262;5.488;2022-11-15T01:10:21;61.53;;;31.48;;
26536;SDS011;14204;51.262;5.488;2022-11-15T01:12:48;59.13;;;29.67;;
26536;SDS011;14204;51.262;5.488;2022-11-15T01:15:14;63.95;;;32.50;;
26536;SDS011;14204;51.262;5.488;2022-11-15T01:17:40;63.78;;;31.15;;
26536;SDS011;14204;51.262;5.488;2022-11-15T01:20:05;57.30;;;31.88;;
26536;SDS011;14204;51.262;5.488;2022-11-15T01:22:32;63.00;;;34.15;;
26536;SDS011;14204;51.262;5.488;2022-11-15T01:24:57;56.42;;;31.73;;
26536;SDS011;14204;51.262;5.488;2022-11-15T01:27:23;53.38;;;30.75;;
26536;SDS011;14204;51.262;5.488;2022-11-15T01:29:49;64.88;;;31.80;;
26536;SDS011;14204;51.262;5.488;2022-11-15T01:32:15;62.63;;;32.85;;
26536;SDS011;14204;51.262;5.488;2022-11-15T01:34:40;80.22;;;36.70;;
26536;SDS011;14204;51.262;5.488;2022-11-15T01:37:06;66.90;;;34.63;;
26536;SDS011;14204;51.262;5.488;2022-11-15T01:39:32;62.08;;;32.40;;
26536;SDS011;14204;51.262;5.488;2022-11-15T01:41:58;62.05;;;33.08;;
26536;SDS011;14204;51.262;5.488;2022-11-15T01:47:34;67.50;;;34.50;;
26536;SDS011;14204;51.262;5.488;2022-11-15T01:50:10;70.30;;;35.53;;
26536;SDS011;14204;51.262;5.488;2022-11-15T01:52:42;70.78;;;35.85;;
26536;SDS011;14204;51.262;5.488;2022-11-15T01:55:11;73.28;;;34.33;;
26536;SDS011;14204;51.262;5.488;2022-11-15T01:57:45;64.43;;;33.33;;
26536;SDS011;14204;51.262;5.488;2022-11-15T02:00:15;64.05;;;33.53;;
26536;SDS011;14204;51.262;5.488;2022-11-15T02:02:41;62.67;;;32.92;;
26536;SDS011;14204;51.262;5.488;2022-11-15T02:05:07;64.10;;;32.30;;
26536;SDS011;14204;51.262;5.488;2022-11-15T02:07:34;60.33;;;32.00;;
26536;SDS011;14204;51.262;5.488;2022-11-15T02:10:06;71.03;;;35.13;;
26536;SDS011;14204;51.262;5.488;2022-11-15T02:12:37;65.82;;;33.90;;
26536;SDS011;14204;51.262;5.488;2022-11-15T02:15:04;67.05;;;33.40;;
26536;SDS011;14204;51.262;5.488;2022-11-15T02:23:08;57.85;;;31.08;;
26536;SDS011;14204;51.262;5.488;2022-11-15T02:26:05;62.80;;;32.83;;
26536;SDS011;14204;51.262;5.488;2022-11-15T02:42:32;63.53;;;31.33;;
26536;SDS011;14204;51.262;5.488;2022-11-15T02:45:27;65.75;;;33.10;;
26536;SDS011;14204;51.262;5.488;2022-11-15T02:47:56;56.00;;;28.50;;
26536;SDS011;14204;51.262;5.488;2022-11-15T02:50:28;53.88;;;28.98;;
26536;SDS011;14204;51.262;5.488;2022-11-15T02:52:56;61.00;;;30.23;;
26536;SDS011;14204;51.262;5.488;2022-11-15T02:55:32;56.30;;;31.38;;
26536;SDS011;14204;51.262;5.488;2022-11-15T02:58:07;55.13;;;30.45;;
26536;SDS011;14204;51.262;5.488;2022-11-15T03:00:59;52.03;;;30.00;;
26536;SDS011;14204;51.262;5.488;2022-11-15T03:06:15;57.85;;;30.02;;
26536;SDS011;14204;51.262;5.488;2022-11-15T03:09:04;60.33;;;32.88;;
26536;SDS011;14204;51.262;5.488;2022-11-15T03:11:43;56.42;;;31.98;;
26536;SDS011;14204;51.262;5.488;2022-11-15T03:19:44;56.03;;;30.90;;
26536;SDS011;14204;51.262;5.488;2022-11-15T03:22:14;57.00;;;30.73;;
26536;SDS011;14204;51.262;5.488;2022-11-15T03:24:46;59.88;;;31.80;;
26536;SDS011;14204;51.262;5.488;2022-11-15T03:27:15;64.07;;;31.85;;
26536;SDS011;14204;51.262;5.488;2022-11-15T03:29:55;65.50;;;32.58;;
26536;SDS011;14204;51.262;5.488;2022-11-15T03:32:31;67.45;;;32.63;;
26536;SDS011;14204;51.262;5.488;2022-11-15T03:35:22;50.22;;;26.95;;
26536;SDS011;14204;51.262;5.488;2022-11-15T03:40:22;55.67;;;28.42;;
26536;SDS011;14204;51.262;5.488;2022-11-15T03:42:57;50.75;;;27.10;;
26536;SDS011;14204;51.262;5.488;2022-11-15T03:45:27;55.15;;;28.55;;
26536;SDS011;14204;51.262;5.488;2022-11-15T03:48:16;62.03;;;30.58;;
26536;SDS011;14204;51.262;5.488;2022-11-15T03:50:46;62.55;;;31.02;;
26536;SDS011;14204;51.262;5.488;2022-11-15T03:53:13;60.85;;;30.88;;
26536;SDS011;14204;51.262;5.488;2022-11-15T03:55:39;48.85;;;27.83;;
26536;SDS011;14204;51.262;5.488;2022-11-15T03:58:05;62.90;;;30.75;;
26536;SDS011;14204;51.262;5.488;2022-11-15T04:00:31;72.95;;;34.85;;
26536;SDS011;14204;51.262;5.488;2022-11-15T04:02:56;60.28;;;30.77;;
26536;SDS011;14204;51.262;5.488;2022-11-15T04:05:22;60.92;;;31.05;;
26536;SDS011;14204;51.262;5.488;2022-11-15T04:07:48;59.17;;;29.83;;
26536;SDS011;14204;51.262;5.488;2022-11-15T04:10:14;63.08;;;32.63;;
26536;SDS011;14204;51.262;5.488;2022-11-15T04:12:41;59.38;;;33.75;;
26536;SDS011;14204;51.262;5.488;2022-11-15T04:17:38;64.30;;;31.40;;
26536;SDS011;14204;51.262;5.488;2022-11-15T04:20:16;65.78;;;33.25;;
26536;SDS011;14204;51.262;5.488;2022-11-15T04:23:01;63.88;;;33.15;;
26536;SDS011;14204;51.262;5.488;2022-11-15T04:25:49;68.40;;;33.80;;
26536;SDS011;14204;51.262;5.488;2022-11-15T04:28:16;75.78;;;36.60;;
26536;SDS011;14204;51.262;5.488;2022-11-15T04:30:43;61.42;;;33.70;;
26536;SDS011;14204;51.262;5.488;2022-11-15T04:33:08;76.65;;;35.70;;
26536;SDS011;14204;51.262;5.488;2022-11-15T04:35:34;62.88;;;29.60;;
26536;SDS011;14204;51.262;5.488;2022-11-15T04:38:00;64.32;;;33.50;;
26536;SDS011;14204;51.262;5.488;2022-11-15T04:40:27;75.13;;;34.92;;
26536;SDS011;14204;51.262;5.488;2022-11-15T04:42:52;65.07;;;33.05;;
26536;SDS011;14204;51.262;5.488;2022-11-15T04:45:18;70.10;;;32.97;;
26536;SDS011;14204;51.262;5.488;2022-11-15T04:47:44;68.28;;;34.03;;
26536;SDS011;14204;51.262;5.488;2022-11-15T04:50:11;71.03;;;33.97;;
26536;SDS011;14204;51.262;5.488;2022-11-15T04:52:39;66.82;;;34.30;;
26536;SDS011;14204;51.262;5.488;2022-11-15T04:55:06;75.05;;;34.15;;
26536;SDS011;14204;51.262;5.488;2022-11-15T04:57:32;72.68;;;32.78;;
26536;SDS011;14204;51.262;5.488;2022-11-15T04:59:57;88.05;;;35.63;;
26536;SDS011;14204;51.262;5.488;2022-11-15T05:02:23;80.97;;;34.75;;
26536;SDS011;14204;51.262;5.488;2022-11-15T05:04:48;81.82;;;33.90;;
26536;SDS011;14204;51.262;5.488;2022-11-15T05:07:14;84.40;;;36.10;;
26536;SDS011;14204;51.262;5.488;2022-11-15T05:09:40;101.47;;;37.50;;
26536;SDS011;14204;51.262;5.488;2022-11-15T05:12:05;77.47;;;32.97;;
26536;SDS011;14204;51.262;5.488;2022-11-15T05:14:31;104.90;;;36.90;;
26536;SDS011;14204;51.262;5.488;2022-11-15T05:16:57;98.93;;;37.47;;
26536;SDS011;14204;51.262;5.488;2022-11-15T05:19:22;96.38;;;39.80;;
26536;SDS011;14204;51.262;5.488;2022-11-15T05:21:48;74.20;;;32.78;;
26536;SDS011;14204;51.262;5.488;2022-11-15T05:24:14;79.13;;;35.20;;
26536;SDS011;14204;51.262;5.488;2022-11-15T05:26:39;140.13;;;44.60;;
26536;SDS011;14204;51.262;5.488;2022-11-15T05:29:05;110.32;;;40.53;;
26536;SDS011;14204;51.262;5.488;2022-11-15T05:31:30;119.20;;;40.78;;
26536;SDS011;14204;51.262;5.488;2022-11-15T05:33:56;130.00;;;41.53;;
26536;SDS011;14204;51.262;5.488;2022-11-15T05:36:43;102.47;;;38.28;;
26536;SDS011;14204;51.262;5.488;2022-11-15T05:39:10;74.35;;;34.95;;
26536;SDS011;14204;51.262;5.488;2022-11-15T05:44:11;67.15;;;31.55;;
26536;SDS011;14204;51.262;5.488;2022-11-15T05:46:40;79.78;;;35.15;;
26536;SDS011;14204;51.262;5.488;2022-11-15T05:49:07;61.45;;;28.73;;
26536;SDS011;14204;51.262;5.488;2022-11-15T05:51:37;45.47;;;24.60;;
26536;SDS011;14204;51.262;5.488;2022-11-15T05:54:03;43.58;;;23.48;;
26536;SDS011;14204;51.262;5.488;2022-11-15T05:56:29;53.85;;;24.75;;
26536;SDS011;14204;51.262;5.488;2022-11-15T05:58:55;49.85;;;23.40;;
26536;SDS011;14204;51.262;5.488;2022-11-15T06:01:22;45.50;;;22.40;;
26536;SDS011;14204;51.262;5.488;2022-11-15T06:03:50;35.28;;;19.50;;
26536;SDS011;14204;51.262;5.488;2022-11-15T06:06:15;41.45;;;21.98;;
26536;SDS011;14204;51.262;5.488;2022-11-15T06:08:41;35.45;;;18.60;;
26536;SDS011;14204;51.262;5.488;2022-11-15T06:11:07;36.83;;;17.60;;
26536;SDS011;14204;51.262;5.488;2022-11-15T06:13:32;39.88;;;20.02;;
26536;SDS011;14204;51.262;5.488;2022-11-15T06:15:59;37.28;;;17.85;;
26536;SDS011;14204;51.262;5.488;2022-11-15T06:18:25;33.88;;;17.08;;
26536;SDS011;14204;51.262;5.488;2022-11-15T06:20:51;37.67;;;18.27;;
26536;SDS011;14204;51.262;5.488;2022-11-15T06:23:17;40.45;;;17.50;;
26536;SDS011;14204;51.262;5.488;2022-11-15T06:25:42;33.80;;;16.58;;
26536;SDS011;14204;51.262;5.488;2022-11-15T06:28:08;41.72;;;19.50;;
26536;SDS011;14204;51.262;5.488;2022-11-15T06:30:33;47.00;;;20.25;;
26536;SDS011;14204;51.262;5.488;2022-11-15T06:33:03;37.80;;;18.52;;
26536;SDS011;14204;51.262;5.488;2022-11-15T06:35:32;40.80;;;18.95;;
26536;SDS011;14204;51.262;5.488;2022-11-15T06:38:03;52.75;;;19.85;;
26536;SDS011;14204;51.262;5.488;2022-11-15T06:40:34;33.30;;;17.80;;
26536;SDS011;14204;51.262;5.488;2022-11-15T06:43:00;49.95;;;19.17;;
26536;SDS011;14204;51.262;5.488;2022-11-15T06:45:27;40.90;;;18.63;;
26536;SDS011;14204;51.262;5.488;2022-11-15T06:47:53;42.20;;;18.77;;
26536;SDS011;14204;51.262;5.488;2022-11-15T06:50:19;52.03;;;19.58;;
26536;SDS011;14204;51.262;5.488;2022-11-15T06:52:44;47.03;;;19.42;;
26536;SDS011;14204;51.262;5.488;2022-11-15T06:55:10;29.20;;;15.43;;
26536;SDS011;14204;51.262;5.488;2022-11-15T06:57:35;52.40;;;21.38;;
26536;SDS011;14204;51.262;5.488;2022-11-15T07:00:03;38.47;;;18.33;;
26536;SDS011;14204;51.262;5.488;2022-11-15T07:02:30;41.25;;;19.67;;
26536;SDS011;14204;51.262;5.488;2022-11-15T07:04:55;39.63;;;19.83;;
26536;SDS011;14204;51.262;5.488;2022-11-15T07:07:21;46.17;;;21.70;;
26536;SDS011;14204;51.262;5.488;2022-11-15T07:09:47;42.25;;;19.95;;
26536;SDS011;14204;51.262;5.488;2022-11-15T07:12:12;47.70;;;22.77;;
26536;SDS011;14204;51.262;5.488;2022-11-15T07:14:38;37.30;;;19.70;;
26536;SDS011;14204;51.262;5.488;2022-11-15T07:17:04;60.63;;;23.52;;
26536;SDS011;14204;51.262;5.488;2022-11-15T07:19:30;32.85;;;17.27;;
26536;SDS011;14204;51.262;5.488;2022-11-15T07:21:56;43.65;;;21.67;;
26536;SDS011;14204;51.262;5.488;2022-11-15T07:24:21;35.97;;;19.80;;
26536;SDS011;14204;51.262;5.488;2022-11-15T07:26:47;38.90;;;19.77;;
26536;SDS011;14204;51.262;5.488;2022-11-15T07:29:13;37.85;;;19.58;;
26536;SDS011;14204;51.262;5.488;2022-11-15T07:31:38;42.55;;;19.20;;
26536;SDS011;14204;51.262;5.488;2022-11-15T07:34:04;34.95;;;18.13;;
26536;SDS011;14204;51.262;5.488;2022-11-15T07:36:29;38.35;;;16.67;;
26536;SDS011;14204;51.262;5.488;2022-11-15T07:38:55;31.42;;;16.73;;
26536;SDS011;14204;51.262;5.488;2022-11-15T07:41:21;37.75;;;17.42;;
26536;SDS011;14204;51.262;5.488;2022-11-15T07:43:46;31.45;;;17.90;;
26536;SDS011;14204;51.262;5.488;2022-11-15T07:46:12;35.10;;;17.33;;
26536;SDS011;14204;51.262;5.488;2022-11-15T07:48:38;17.08;;;11.38;;
26536;SDS011;14204;51.262;5.488;2022-11-15T07:51:05;41.28;;;18.33;;
26536;SDS011;14204;51.262;5.488;2022-11-15T07:53:31;31.58;;;16.38;;
26536;SDS011;14204;51.262;5.488;2022-11-15T07:55:57;32.22;;;15.65;;
26536;SDS011;14204;51.262;5.488;2022-11-15T07:58:22;24.05;;;13.63;;
26536;SDS011;14204;51.262;5.488;2022-11-15T08:00:48;29.02;;;14.70;;
26536;SDS011;14204;51.262;5.488;2022-11-15T08:03:15;26.88;;;13.65;;
26536;SDS011;14204;51.262;5.488;2022-11-15T08:05:41;23.70;;;12.77;;
26536;SDS011;14204;51.262;5.488;2022-11-15T08:08:11;27.63;;;13.25;;
26536;SDS011;14204;51.262;5.488;2022-11-15T08:10:37;17.65;;;11.43;;
26536;SDS011;14204;51.262;5.488;2022-11-15T08:13:06;20.27;;;12.23;;
26536;SDS011;14204;51.262;5.488;2022-11-15T08:15:34;25.42;;;13.52;;
26536;SDS011;14204;51.262;5.488;2022-11-15T08:18:01;33.45;;;14.48;;
26536;SDS011;14204;51.262;5.488;2022-11-15T08:20:31;24.02;;;12.85;;
26536;SDS011;14204;51.262;5.488;2022-11-15T08:22:59;26.00;;;13.40;;
26536;SDS011;14204;51.262;5.488;2022-11-15T08:25:29;19.52;;;11.82;;
26536;SDS011;14204;51.262;5.488;2022-11-15T08:27:56;18.23;;;12.00;;
26536;SDS011;14204;51.262;5.488;2022-11-15T08:30:24;21.52;;;12.63;;
26536;SDS011;14204;51.262;5.488;2022-11-15T08:32:50;19.67;;;11.88;;
26536;SDS011;14204;51.262;5.488;2022-11-15T08:35:17;21.80;;;11.90;;
26536;SDS011;14204;51.262;5.488;2022-11-15T08:37:44;18.40;;;10.15;;
26536;SDS011;14204;51.262;5.488;2022-11-15T08:40:09;16.83;;;10.43;;
26536;SDS011;14204;51.262;5.488;2022-11-15T08:42:35;17.83;;;10.50;;
26536;SDS011;14204;51.262;5.488;2022-11-15T08:45:02;14.38;;;9.43;;
26536;SDS011;14204;51.262;5.488;2022-11-15T08:47:28;16.20;;;9.65;;
26536;SDS011;14204;51.262;5.488;2022-11-15T08:49:53;13.18;;;8.82;;
26536;SDS011;14204;51.262;5.488;2022-11-15T08:52:19;14.38;;;8.38;;
26536;SDS011;14204;51.262;5.488;2022-11-15T08:54:44;15.60;;;8.40;;
26536;SDS011;14204;51.262;5.488;2022-11-15T08:57:10;14.77;;;8.48;;
26536;SDS011;14204;51.262;5.488;2022-11-15T08:59:36;11.30;;;7.20;;
26536;SDS011;14204;51.262;5.488;2022-11-15T09:02:02;9.57;;;6.20;;
26536;SDS011;14204;51.262;5.488;2022-11-15T09:04:28;11.32;;;6.60;;
26536;SDS011;14204;51.262;5.488;2022-11-15T09:06:54;8.75;;;6.72;;
26536;SDS011;14204;51.262;5.488;2022-11-15T09:09:19;7.78;;;5.30;;
26536;SDS011;14204;51.262;5.488;2022-11-15T09:11:45;8.57;;;4.60;;
26536;SDS011;14204;51.262;5.488;2022-11-15T09:14:11;8.45;;;3.53;;
26536;SDS011;14204;51.262;5.488;2022-11-15T09:16:37;8.93;;;3.38;;
26536;SDS011;14204;51.262;5.488;2022-11-15T09:19:03;5.78;;;2.47;;
26536;SDS011;14204;51.262;5.488;2022-11-15T09:21:29;6.78;;;2.45;;
26536;SDS011;14204;51.262;5.488;2022-11-15T09:23:55;6.43;;;2.53;;
26536;SDS011;14204;51.262;5.488;2022-11-15T09:26:20;3.65;;;1.60;;
26536;SDS011;14204;51.262;5.488;2022-11-15T09:28:46;6.43;;;1.98;;
26536;SDS011;14204;51.262;5.488;2022-11-15T09:31:12;5.85;;;2.55;;
26536;SDS011;14204;51.262;5.488;2022-11-15T09:33:38;6.93;;;2.00;;
26536;SDS011;14204;51.262;5.488;2022-11-15T09:36:05;9.20;;;2.00;;
26536;SDS011;14204;51.262;5.488;2022-11-15T09:38:32;5.22;;;2.17;;
26536;SDS011;14204;51.262;5.488;2022-11-15T09:43:43;4.60;;;2.60;;
26536;SDS011;14204;51.262;5.488;2022-11-15T09:46:30;4.72;;;1.90;;
26536;SDS011;14204;51.262;5.488;2022-11-15T09:49:16;5.50;;;2.22;;
26536;SDS011;14204;51.262;5.488;2022-11-15T09:51:44;3.83;;;1.80;;
26536;SDS011;14204;51.262;5.488;2022-11-15T09:57:17;6.45;;;2.08;;
26536;SDS011;14204;51.262;5.488;2022-11-15T10:00:08;3.95;;;1.70;;
26536;SDS011;14204;51.262;5.488;2022-11-15T10:05:42;3.97;;;2.20;;
26536;SDS011;14204;51.262;5.488;2022-11-15T10:10:57;6.30;;;1.88;;
26536;SDS011;14204;51.262;5.488;2022-11-15T10:13:25;7.07;;;2.10;;
26536;SDS011;14204;51.262;5.488;2022-11-15T10:15:54;7.57;;;1.83;;
26536;SDS011;14204;51.262;5.488;2022-11-15T10:18:41;5.75;;;2.08;;
26536;SDS011;14204;51.262;5.488;2022-11-15T10:24:15;3.83;;;1.70;;
26536;SDS011;14204;51.262;5.488;2022-11-15T10:26:48;7.30;;;1.85;;
26536;SDS011;14204;51.262;5.488;2022-11-15T10:29:21;5.82;;;1.98;;
26536;SDS011;14204;51.262;5.488;2022-11-15T10:31:48;7.63;;;1.45;;
26536;SDS011;14204;51.262;5.488;2022-11-15T10:34:18;5.47;;;1.10;;
26536;SDS011;14204;51.262;5.488;2022-11-15T10:36:46;3.20;;;1.48;;
26536;SDS011;14204;51.262;5.488;2022-11-15T10:39:22;4.63;;;1.60;;
26536;SDS011;14204;51.262;5.488;2022-11-15T10:41:48;6.47;;;1.35;;
26536;SDS011;14204;51.262;5.488;2022-11-15T10:46:48;11.20;;;2.63;;
26536;SDS011;14204;51.262;5.488;2022-11-15T10:49:20;4.15;;;1.80;;
26536;SDS011;14204;51.262;5.488;2022-11-15T10:51:50;5.20;;;1.60;;
26536;SDS011;14204;51.262;5.488;2022-11-15T10:54:36;2.88;;;1.65;;
26536;SDS011;14204;51.262;5.488;2022-11-15T10:57:27;7.43;;;1.80;;
26536;SDS011;14204;51.262;5.488;2022-11-15T10:59:59;5.15;;;1.45;;
26536;SDS011;14204;51.262;5.488;2022-11-15T11:05:02;4.63;;;1.25;;
26536;SDS011;14204;51.262;5.488;2022-11-15T11:07:31;7.65;;;1.42;;
26536;SDS011;14204;51.262;5.488;2022-11-15T11:12:44;5.57;;;1.40;;
26536;SDS011;14204;51.262;5.488;2022-11-15T11:15:11;3.20;;;1.35;;
26536;SDS011;14204;51.262;5.488;2022-11-15T11:20:25;6.75;;;2.20;;
26536;SDS011;14204;51.262;5.488;2022-11-15T11:23:02;5.43;;;1.70;;
26536;SDS011;14204;51.262;5.488;2022-11-15T11:31:32;9.48;;;1.38;;
26536;SDS011;14204;51.262;5.488;2022-11-15T11:37:17;5.57;;;1.40;;
26536;SDS011;14204;51.262;5.488;2022-11-15T11:51:14;5.38;;;1.58;;
26536;SDS011;14204;51.262;5.488;2022-11-15T11:54:03;9.05;;;1.55;;
26536;SDS011;14204;51.262;5.488;2022-11-15T11:56:37;4.88;;;1.00;;
26536;SDS011;14204;51.262;5.488;2022-11-15T12:01:44;5.45;;;1.55;;
26536;SDS011;14204;51.262;5.488;2022-11-15T12:07:21;3.42;;;1.20;;
26536;SDS011;14204;51.262;5.488;2022-11-15T12:09:57;4.57;;;1.40;;
26536;SDS011;14204;51.262;5.488;2022-11-15T12:18:14;3.42;;;1.38;;
26536;SDS011;14204;51.262;5.488;2022-11-15T12:20:42;3.92;;;1.00;;
26536;SDS011;14204;51.262;5.488;2022-11-15T12:23:30;6.32;;;1.20;;
26536;SDS011;14204;51.262;5.488;2022-11-15T12:31:19;4.57;;;1.17;;
26536;SDS011;14204;51.262;5.488;2022-11-15T12:33:49;2.47;;;0.85;;
26536;SDS011;14204;51.262;5.488;2022-11-15T12:38:53;4.35;;;1.10;;
26536;SDS011;14204;51.262;5.488;2022-11-15T12:41:26;2.70;;;1.10;;
26536;SDS011;14204;51.262;5.488;2022-11-15T12:48:48;3.38;;;1.13;;
26536;SDS011;14204;51.262;5.488;2022-11-15T12:51:17;5.03;;;1.02;;
26536;SDS011;14204;51.262;5.488;2022-11-15T12:53:45;6.95;;;1.52;;
26536;SDS011;14204;51.262;5.488;2022-11-15T13:07:05;3.50;;;1.10;;
26536;SDS011;14204;51.262;5.488;2022-11-15T13:12:01;3.70;;;0.90;;
26536;SDS011;14204;51.262;5.488;2022-11-15T13:17:02;2.83;;;0.98;;
26536;SDS011;14204;51.262;5.488;2022-11-15T13:19:37;3.00;;;1.00;;
26536;SDS011;14204;51.262;5.488;2022-11-15T13:22:04;5.20;;;1.33;;
26536;SDS011;14204;51.262;5.488;2022-11-15T13:24:52;7.03;;;1.20;;
26536;SDS011;14204;51.262;5.488;2022-11-15T13:27:19;4.97;;;1.20;;
26536;SDS011;14204;51.262;5.488;2022-11-15T13:29:45;1.90;;;1.00;;
26536;SDS011;14204;51.262;5.488;2022-11-15T13:32:12;3.75;;;1.23;;
26536;SDS011;14204;51.262;5.488;2022-11-15T13:34:42;4.30;;;1.45;;
26536;SDS011;14204;51.262;5.488;2022-11-15T13:39:45;5.80;;;0.90;;
26536;SDS011;14204;51.262;5.488;2022-11-15T13:42:19;5.90;;;1.20;;
26536;SDS011;14204;51.262;5.488;2022-11-15T13:44:58;2.90;;;0.80;;
26536;SDS011;14204;51.262;5.488;2022-11-15T13:47:27;3.90;;;1.20;;
26536;SDS011;14204;51.262;5.488;2022-11-15T13:49:56;9.02;;;1.40;;
26536;SDS011;14204;51.262;5.488;2022-11-15T13:52:22;4.78;;;1.10;;
26536;SDS011;14204;51.262;5.488;2022-11-15T13:55:01;5.43;;;1.15;;
26536;SDS011;14204;51.262;5.488;2022-11-15T13:57:41;0.75;;;0.70;;
26536;SDS011;14204;51.262;5.488;2022-11-15T14:03:05;6.18;;;1.48;;
26536;SDS011;14204;51.262;5.488;2022-11-15T14:06:08;4.82;;;1.30;;
26536;SDS011;14204;51.262;5.488;2022-11-15T14:08:40;11.18;;;1.65;;
26536;SDS011;14204;51.262;5.488;2022-11-15T14:11:24;3.42;;;0.98;;
26536;SDS011;14204;51.262;5.488;2022-11-15T14:16:38;6.95;;;1.60;;
26536;SDS011;14204;51.262;5.488;2022-11-15T14:19:06;6.60;;;1.15;;
26536;SDS011;14204;51.262;5.488;2022-11-15T14:21:34;6.68;;;1.50;;
26536;SDS011;14204;51.262;5.488;2022-11-15T14:24:19;2.78;;;1.38;;
26536;SDS011;14204;51.262;5.488;2022-11-15T14:26:46;6.50;;;1.80;;
26536;SDS011;14204;51.262;5.488;2022-11-15T14:29:28;2.85;;;1.70;;
26536;SDS011;14204;51.262;5.488;2022-11-15T14:32:05;6.13;;;1.50;;
26536;SDS011;14204;51.262;5.488;2022-11-15T14:34:38;6.00;;;1.50;;
26536;SDS011;14204;51.262;5.488;2022-11-15T14:37:03;5.70;;;1.05;;
26536;SDS011;14204;51.262;5.488;2022-11-15T14:39:29;3.55;;;1.40;;
26536;SDS011;14204;51.262;5.488;2022-11-15T14:41:55;6.57;;;1.00;;
26536;SDS011;14204;51.262;5.488;2022-11-15T14:44:20;4.28;;;1.17;;
26536;SDS011;14204;51.262;5.488;2022-11-15T14:46:46;5.70;;;1.15;;
26536;SDS011;14204;51.262;5.488;2022-11-15T14:49:13;5.30;;;1.55;;
26536;SDS011;14204;51.262;5.488;2022-11-15T14:51:40;3.20;;;1.13;;
26536;SDS011;14204;51.262;5.488;2022-11-15T14:54:09;4.15;;;1.50;;
26536;SDS011;14204;51.262;5.488;2022-11-15T14:56:35;4.90;;;1.67;;
26536;SDS011;14204;51.262;5.488;2022-11-15T14:59:01;4.88;;;1.40;;
26536;SDS011;14204;51.262;5.488;2022-11-15T15:01:26;6.53;;;1.58;;
26536;SDS011;14204;51.262;5.488;2022-11-15T15:03:52;7.68;;;1.45;;
26536;SDS011;14204;51.262;5.488;2022-11-15T15:06:23;4.45;;;1.30;;
26536;SDS011;14204;51.262;5.488;2022-11-15T15:08:49;3.53;;;1.48;;
26536;SDS011;14204;51.262;5.488;2022-11-15T15:11:20;4.85;;;1.75;;
26536;SDS011;14204;51.262;5.488;2022-11-15T15:13:47;5.27;;;1.90;;
26536;SDS011;14204;51.262;5.488;2022-11-15T15:16:13;2.97;;;1.35;;
26536;SDS011;14204;51.262;5.488;2022-11-15T15:18:38;4.13;;;1.50;;
26536;SDS011;14204;51.262;5.488;2022-11-15T15:21:04;4.03;;;1.65;;
26536;SDS011;14204;51.262;5.488;2022-11-15T15:23:50;5.25;;;1.75;;
26536;SDS011;14204;51.262;5.488;2022-11-15T15:26:16;6.07;;;1.63;;
26536;SDS011;14204;51.262;5.488;2022-11-15T15:28:42;2.08;;;1.58;;
26536;SDS011;14204;51.262;5.488;2022-11-15T15:31:08;5.30;;;1.73;;
26536;SDS011;14204;51.262;5.488;2022-11-15T15:33:35;2.25;;;1.25;;
26536;SDS011;14204;51.262;5.488;2022-11-15T15:36:00;6.20;;;1.70;;
26536;SDS011;14204;51.262;5.488;2022-11-15T15:38:26;4.10;;;1.50;;
26536;SDS011;14204;51.262;5.488;2022-11-15T15:40:52;3.65;;;2.03;;
26536;SDS011;14204;51.262;5.488;2022-11-15T15:43:18;5.53;;;1.80;;
26536;SDS011;14204;51.262;5.488;2022-11-15T15:45:43;6.82;;;2.28;;
26536;SDS011;14204;51.262;5.488;2022-11-15T15:48:14;3.80;;;2.05;;
26536;SDS011;14204;51.262;5.488;2022-11-15T15:50:41;4.82;;;1.80;;
26536;SDS011;14204;51.262;5.488;2022-11-15T15:53:08;3.30;;;1.85;;
26536;SDS011;14204;51.262;5.488;2022-11-15T15:55:35;2.35;;;2.10;;
26536;SDS011;14204;51.262;5.488;2022-11-15T15:58:02;5.22;;;2.05;;
26536;SDS011;14204;51.262;5.488;2022-11-15T16:00:28;2.63;;;1.90;;
26536;SDS011;14204;51.262;5.488;2022-11-15T16:02:53;3.05;;;2.03;;
26536;SDS011;14204;51.262;5.488;2022-11-15T16:05:19;4.80;;;2.10;;
26536;SDS011;14204;51.262;5.488;2022-11-15T16:07:46;5.00;;;2.50;;
26536;SDS011;14204;51.262;5.488;2022-11-15T16:12:49;3.80;;;2.60;;
26536;SDS011;14204;51.262;5.488;2022-11-15T16:15:16;4.30;;;2.90;;
26536;SDS011;14204;51.262;5.488;2022-11-15T16:17:51;9.05;;;3.30;;
26536;SDS011;14204;51.262;5.488;2022-11-15T16:23:05;3.50;;;2.40;;
26536;SDS011;14204;51.262;5.488;2022-11-15T16:30:43;8.25;;;3.78;;
26536;SDS011;14204;51.262;5.488;2022-11-15T16:33:08;5.47;;;3.67;;
26536;SDS011;14204;51.262;5.488;2022-11-15T16:35:34;8.18;;;3.97;;
26536;SDS011;14204;51.262;5.488;2022-11-15T16:38:00;7.72;;;4.60;;
26536;SDS011;14204;51.262;5.488;2022-11-15T16:40:32;8.00;;;4.57;;
26536;SDS011;14204;51.262;5.488;2022-11-15T16:42:59;5.38;;;4.28;;
26536;SDS011;14204;51.262;5.488;2022-11-15T16:45:27;6.55;;;4.75;;
26536;SDS011;14204;51.262;5.488;2022-11-15T16:47:55;10.20;;;4.75;;
26536;SDS011;14204;51.262;5.488;2022-11-15T16:50:22;8.60;;;6.22;;
26536;SDS011;14204;51.262;5.488;2022-11-15T16:52:52;8.25;;;6.05;;
26536;SDS011;14204;51.262;5.488;2022-11-15T16:55:20;7.55;;;5.25;;
26536;SDS011;14204;51.262;5.488;2022-11-15T16:57:47;8.73;;;6.00;;
26536;SDS011;14204;51.262;5.488;2022-11-15T17:00:13;11.57;;;7.05;;
26536;SDS011;14204;51.262;5.488;2022-11-15T17:02:44;7.90;;;5.97;;
26536;SDS011;14204;51.262;5.488;2022-11-15T17:05:11;10.60;;;6.55;;
26536;SDS011;14204;51.262;5.488;2022-11-15T17:07:38;12.65;;;6.95;;